createdAt,value
2024-04-12T00:01:48.984Z,18.80
2024-04-12T00:06:54.421Z,18.90
2024-04-12T00:12:02.617Z,17.80
2024-04-12T00:17:17.449Z,19.00
2024-04-12T00:22:25.329Z,20.27
2024-04-12T00:27:35.793Z,20.80
2024-04-12T00:32:44.563Z,19.60
2024-04-12T00:37:55.049Z,21.13
2024-04-12T00:43:12.781Z,22.15
2024-04-12T00:48:17.951Z,23.40
2024-04-12T00:53:23.967Z,23.20
2024-04-12T00:58:34.342Z,22.20
2024-04-12T01:03:39.568Z,24.45
2024-04-12T01:08:45.224Z,23.25
2024-04-12T01:13:53.680Z,24.08
2024-04-12T01:18:58.963Z,24.48
2024-04-12T01:24:07.618Z,23.70
2024-04-12T01:29:15.333Z,26.45
2024-04-12T01:34:20.835Z,26.50
2024-04-12T01:39:29.981Z,27.35
2024-04-12T01:44:39.373Z,27.03
2024-04-12T01:49:44.895Z,26.70
2024-04-12T01:55:06.582Z,27.85
2024-04-12T02:00:18.342Z,27.50
2024-04-12T02:05:30.750Z,28.42
2024-04-12T02:10:35.781Z,26.75
2024-04-12T02:15:43.398Z,27.10
2024-04-12T02:20:48.704Z,25.15
2024-04-12T02:25:55.606Z,23.80
2024-04-12T02:31:09.805Z,21.33
2024-04-12T02:36:20.060Z,20.67
2024-04-12T02:41:24.967Z,21.03
2024-04-12T02:46:32.436Z,19.67
2024-04-12T02:51:37.340Z,20.92
2024-04-12T02:56:45.947Z,21.88
2024-04-12T03:01:53.672Z,23.00
2024-04-12T03:06:58.731Z,22.98
2024-04-12T03:12:03.706Z,22.60
2024-04-12T03:17:13.116Z,21.58
2024-04-12T03:22:18.011Z,23.00
2024-04-12T03:27:22.824Z,20.77
2024-04-12T03:32:34.059Z,20.73
2024-04-12T03:37:40.929Z,19.35
2024-04-12T03:42:46.043Z,18.58
2024-04-12T03:47:55.795Z,17.48
2024-04-12T03:53:06.887Z,15.45
2024-04-12T04:03:32.422Z,17.92
2024-04-12T04:08:49.970Z,16.52
2024-04-12T04:13:55.140Z,16.58
2024-04-12T04:19:02.869Z,17.73
2024-04-12T04:24:12.588Z,17.92
2024-04-12T04:29:18.028Z,17.90
2024-04-12T04:34:27.040Z,18.00
2024-04-12T04:39:32.008Z,17.80
2024-04-12T04:44:37.444Z,16.52
2024-04-12T04:49:45.917Z,16.75
2024-04-12T04:54:50.807Z,15.63
2024-04-12T05:00:07.304Z,18.08
2024-04-12T05:05:15.909Z,17.02
2024-04-12T05:10:22.255Z,16.05
2024-04-12T05:15:48.405Z,16.27
2024-04-12T05:20:58.838Z,15.35
2024-04-12T05:26:04.687Z,15.35
2024-04-12T05:31:13.518Z,15.95
2024-04-12T05:36:21.986Z,16.48
2024-04-12T05:41:33.521Z,15.60
2024-04-12T05:46:43.286Z,15.20
2024-04-12T05:51:51.263Z,14.73
2024-04-12T05:56:56.235Z,13.98
2024-04-12T06:02:03.100Z,13.98
2024-04-12T06:07:13.089Z,14.00
2024-04-12T06:12:18.091Z,10.00
2024-04-12T06:17:24.974Z,14.18
2024-04-12T06:22:32.829Z,14.90
2024-04-12T06:27:37.957Z,15.07
2024-04-12T06:32:43.012Z,15.73
2024-04-12T06:37:55.898Z,17.85
2024-04-12T06:43:09.704Z,18.52
2024-04-12T06:48:18.273Z,19.30
2024-04-12T06:53:26.282Z,19.88
2024-04-12T06:58:31.180Z,20.27
2024-04-12T07:03:36.583Z,19.30
2024-04-12T07:08:51.457Z,19.10
2024-04-12T07:13:56.723Z,17.05
2024-04-12T07:19:02.162Z,18.75
2024-04-12T07:24:09.853Z,17.85
2024-04-12T07:29:14.817Z,16.02
2024-04-12T07:34:19.761Z,17.48
2024-04-12T07:39:27.380Z,17.15
2024-04-12T07:44:36.858Z,17.88
2024-04-12T07:49:49.861Z,17.48
2024-04-12T07:54:57.509Z,17.67
2024-04-12T08:00:11.022Z,17.27
2024-04-12T08:05:17.864Z,16.27
2024-04-12T08:10:31.006Z,14.95
2024-04-12T08:15:41.921Z,16.08
2024-04-12T08:20:48.217Z,16.17
2024-04-12T08:25:59.655Z,15.18
2024-04-12T08:31:07.329Z,16.10
2024-04-12T08:36:15.592Z,16.20
2024-04-12T08:41:25.710Z,25.38
2024-04-12T08:46:34.717Z,16.67
2024-04-12T08:51:40.844Z,17.08
2024-04-12T08:56:48.454Z,16.98
2024-04-12T09:01:54.216Z,14.82
2024-04-12T09:06:59.632Z,15.57
2024-04-12T09:12:13.957Z,14.90
2024-04-12T09:17:25.579Z,13.27
2024-04-12T09:22:30.878Z,13.88
2024-04-12T09:27:45.301Z,11.45
2024-04-12T09:33:01.959Z,10.90
2024-04-12T09:38:17.467Z,10.90
2024-04-12T09:43:37.846Z,12.05
2024-04-12T09:48:59.366Z,14.38
2024-04-12T09:54:20.245Z,11.88
2024-04-12T09:59:46.653Z,11.27
2024-04-12T10:05:16.911Z,10.80
2024-04-12T10:10:52.627Z,8.20
2024-04-12T10:16:33.132Z,11.32
2024-04-12T10:21:53.780Z,11.38
2024-04-12T10:27:16.565Z,10.90
2024-04-12T10:32:38.876Z,11.38
2024-04-12T10:37:45.968Z,11.27
2024-04-12T10:42:54.097Z,10.65
2024-04-12T10:48:03.229Z,10.05
2024-04-12T10:53:08.883Z,10.00
2024-04-12T10:58:15.607Z,8.88
2024-04-12T11:03:26.110Z,8.82
2024-04-12T11:08:33.043Z,8.10
2024-04-12T11:13:46.815Z,7.47
2024-04-12T11:19:12.084Z,8.10
2024-04-12T11:24:51.678Z,7.40
2024-04-12T11:30:12.590Z,6.72
2024-04-12T11:35:21.688Z,8.27
2024-04-12T11:40:26.928Z,6.32
2024-04-12T11:45:35.333Z,6.85
2024-04-12T11:50:42.983Z,5.80
2024-04-12T11:55:49.550Z,6.05
2024-04-12T12:00:54.497Z,5.43
2024-04-12T12:06:08.027Z,6.03
2024-04-12T12:11:13.816Z,6.18
2024-04-12T12:16:18.853Z,5.40
2024-04-12T12:21:26.455Z,5.53
2024-04-12T12:26:32.725Z,5.95
2024-04-12T12:31:38.165Z,5.60
2024-04-12T12:36:46.130Z,6.32
2024-04-12T12:41:51.534Z,5.72
2024-04-12T12:46:57.010Z,5.10
2024-04-12T12:52:06.388Z,5.20
2024-04-12T12:57:11.517Z,4.50
2024-04-12T13:02:17.684Z,4.70
2024-04-12T13:07:25.236Z,5.78
2024-04-12T13:12:31.214Z,6.13
2024-04-12T13:17:38.179Z,7.10
2024-04-12T13:22:45.875Z,4.82
2024-04-12T13:27:56.737Z,5.00
2024-04-12T13:33:05.848Z,3.53
2024-04-12T13:38:14.258Z,4.68
2024-04-12T13:43:19.802Z,4.75
2024-04-12T13:48:40.701Z,4.93
2024-04-12T13:53:51.858Z,6.38
2024-04-12T13:58:57.635Z,5.78
2024-04-12T14:04:05.657Z,6.70
2024-04-12T14:09:14.848Z,6.80
2024-04-12T14:14:21.858Z,6.57
2024-04-12T14:19:26.857Z,6.82
2024-04-12T14:24:50.703Z,6.25
2024-04-12T14:29:56.138Z,6.22
2024-04-12T14:35:09.968Z,5.70
2024-04-12T14:40:23.343Z,5.90
2024-04-12T14:45:28.479Z,6.90
2024-04-12T14:50:36.045Z,6.30
2024-04-12T14:55:44.603Z,4.43
2024-04-12T15:00:49.728Z,4.15
2024-04-12T15:06:11.424Z,3.95
2024-04-12T15:11:34.812Z,3.80
2024-04-12T15:16:55.916Z,4.43
2024-04-12T15:22:16.632Z,3.97
2024-04-12T15:33:01.025Z,2.50
2024-04-12T15:38:21.708Z,2.10
2024-04-12T15:43:42.583Z,1.73
2024-04-12T15:48:50.492Z,1.85
2024-04-12T15:54:00.115Z,1.85
2024-04-12T15:59:21.003Z,2.33
2024-04-12T16:04:44.615Z,1.92
2024-04-12T16:10:05.529Z,2.03
2024-04-12T16:15:10.777Z,2.05
2024-04-12T16:20:18.416Z,2.25
2024-04-12T16:25:23.405Z,2.47
2024-04-12T16:30:28.443Z,2.22
2024-04-12T16:35:35.996Z,2.30
2024-04-12T16:40:41.041Z,2.00
2024-04-12T16:45:45.898Z,2.13
2024-04-12T16:50:53.485Z,2.55
2024-04-12T16:55:58.447Z,2.15
2024-04-12T17:01:04.431Z,2.40
2024-04-12T17:06:12.003Z,2.53
2024-04-12T17:11:16.958Z,2.30
2024-04-12T17:16:22.432Z,2.42
2024-04-12T17:21:32.726Z,3.10
2024-04-12T17:26:37.570Z,2.65
2024-04-12T17:31:42.565Z,3.25
2024-04-12T17:36:50.088Z,3.47
2024-04-12T17:41:55.073Z,3.30
2024-04-12T17:47:00.389Z,2.63
2024-04-12T17:52:09.857Z,2.40
2024-04-12T17:57:15.212Z,3.05
2024-04-12T18:02:23.344Z,2.97
2024-04-12T18:07:32.103Z,2.55
2024-04-12T18:12:37.958Z,2.85
2024-04-12T18:17:42.905Z,2.50
2024-04-12T18:22:50.433Z,2.58
2024-04-12T18:27:55.333Z,2.90
2024-04-12T18:33:01.140Z,2.35
2024-04-12T18:38:24.731Z,2.83
2024-04-12T18:43:53.818Z,2.33
2024-04-12T18:48:58.816Z,2.78
2024-04-12T18:54:06.764Z,2.72
2024-04-12T18:59:14.796Z,2.50
2024-04-12T19:04:19.831Z,2.70
2024-04-12T19:09:27.453Z,3.08
2024-04-12T19:14:32.355Z,2.67
2024-04-12T19:19:37.238Z,2.72
2024-04-12T19:24:44.828Z,2.58
2024-04-12T19:29:50.098Z,2.42
2024-04-12T19:34:55.020Z,2.85
2024-04-12T19:40:02.642Z,3.08
2024-04-12T19:45:08.042Z,2.58
2024-04-12T19:50:14.006Z,2.90
2024-04-12T19:55:21.567Z,3.20
2024-04-12T20:00:26.583Z,3.38
2024-04-12T20:05:31.571Z,10.10
2024-04-12T20:10:39.191Z,4.45
2024-04-12T20:15:44.195Z,4.13
2024-04-12T20:20:55.657Z,3.97
2024-04-12T20:26:05.106Z,4.28
2024-04-12T20:31:24.741Z,3.88
2024-04-12T20:36:42.457Z,4.72
2024-04-12T20:41:50.472Z,4.57
2024-04-12T20:46:56.065Z,81.90
2024-04-12T20:52:07.483Z,7.03
2024-04-12T20:57:19.026Z,6.47
2024-04-12T21:02:24.168Z,6.50
2024-04-12T21:07:29.043Z,5.80
2024-04-12T21:12:36.584Z,5.22
2024-04-12T21:17:45.298Z,5.30
2024-04-12T21:22:50.174Z,11.88
2024-04-12T21:27:57.657Z,6.47
2024-04-12T21:33:02.905Z,3.90
2024-04-12T21:38:07.900Z,3.70
2024-04-12T21:43:15.983Z,3.65
2024-04-12T21:48:21.424Z,4.03
2024-04-12T21:53:26.410Z,4.07
2024-04-12T21:58:34.186Z,4.25
2024-04-12T22:03:39.285Z,4.32
2024-04-12T22:08:44.440Z,4.78
2024-04-12T22:13:51.974Z,4.30
2024-04-12T22:18:56.957Z,6.07
2024-04-12T22:24:01.870Z,5.45
2024-04-12T22:29:09.534Z,5.30
2024-04-12T22:34:14.530Z,5.57
2024-04-12T22:39:19.487Z,5.55
2024-04-12T22:44:27.010Z,6.40
2024-04-12T22:49:33.164Z,6.68
2024-04-12T22:54:38.070Z,6.53
2024-04-12T22:59:45.565Z,5.70
2024-04-12T23:04:50.436Z,5.85
2024-04-12T23:09:55.392Z,5.82
2024-04-12T23:15:03.233Z,5.47
2024-04-12T23:20:08.599Z,5.78
2024-04-12T23:25:13.574Z,5.97
2024-04-12T23:30:21.241Z,5.43
2024-04-12T23:35:26.236Z,5.60
2024-04-12T23:40:31.293Z,5.85
2024-04-12T23:45:42.854Z,5.22
2024-04-12T23:50:47.715Z,4.95
2024-04-12T23:55:52.857Z,4.82
